First Ferry Vi — VRS4293 — position and weather

sailwx.info

Track history (hours):
 
Tides and Currents Weather Stations Pressure Air Temp Water Temp Dewpoint Dewpoint Depression Visibility Wind Speed Wind Dir Waves Ship Positions

First Ferry Vi

Last reported at 2014-Dec-19 02:24 UTC. Time now 2014-Dec-19 03:15 UTC.
Position N 22°20' E 114°09'.

Length 36 m; draft 1.8 m.

Type: Ship. MMSI: 477995028.

Date/timePositionNaut miles runAvg speedWind from/ knotsBaromVisibWave heightAir tempDewpointWater temp
2014-Dec-19 02:24N 22°20' E 114°09'1 0.4
2014-Dec-19 00:33N 22°19' E 114°09'3 2.2
2014-Dec-18 23:12N 22°17' E 114°06'3 0.4
2014-Dec-18 15:33N 22°17' E 114°10'4 2.8
2014-Dec-18 14:15N 22°17' E 114°06'5 7.7
2014-Dec-18 13:33N 22°18' E 114°11'2 1.8
2014-Dec-18 12:33N 22°17' E 114°10'3 2.4
2014-Dec-18 11:27N 22°17' E 114°07'1 1.1
2014-Dec-18 10:16N 22°17' E 114°05'5 7.6
2014-Dec-18 09:33N 22°18' E 114°11'1 1.3
2014-Dec-18 08:33N 22°19' E 114°12'0 0.0
2014-Dec-18 07:34N 22°19' E 114°12'0 0.0
2014-Dec-18 06:34N 22°19' E 114°12'1 1.3
2014-Dec-18 05:33N 22°18' E 114°11'2 0.8
2014-Dec-18 03:33N 22°17' E 114°10'5 3.4
2014-Dec-18 02:04N 22°16' E 114°04'611.2
2014-Dec-18 01:33N 22°17' E 114°10'0 0.3
2014-Dec-18 00:34N 22°17' E 114°10'7 5.4
2014-Dec-17 23:20N 22°15' E 114°04'6 0.8
2014-Dec-17 15:33N 22°17' E 114°10'8 7.4
2014-Dec-17 14:26N 22°16' E 114°01'8 9.3
2014-Dec-17 13:33N 22°17' E 114°10'0 0.0
2014-Dec-17 12:33N 22°17' E 114°10'4 4.3
2014-Dec-17 11:33N 22°16' E 114°05'2 2.1
2014-Dec-17 10:23N 22°16' E 114°02'8 9.4
2014-Dec-17 09:34N 22°18' E 114°11'2 1.6
2014-Dec-17 08:33N 22°19' E 114°12'0 0.0
2014-Dec-17 07:33N 22°19' E 114°12'0 0.0
2014-Dec-17 06:33N 22°19' E 114°12'2 1.6
2014-Dec-17 05:33N 22°18' E 114°11'7 4.9
2014-Dec-17 04:07N 22°15' E 114°04'610.6
2014-Dec-17 03:33N 22°17' E 114°10'5 3.7
2014-Dec-17 02:05N 22°15' E 114°04'5 9.1
2014-Dec-17 01:33N 22°18' E 114°09'1 0.7
2014-Dec-17 00:33N 22°19' E 114°09'6 5.4
2014-Dec-16 23:21N 22°15' E 114°03'2 2.3
2014-Dec-16 22:33N 22°17' E 114°04'3 0.4
2014-Dec-16 16:05N 22°15' E 114°01'815.4
2014-Dec-16 15:33N 22°17' E 114°10'8 7.2
2014-Dec-16 14:26N 22°16' E 114°01'8 9.4
2014-Dec-16 13:33N 22°19' E 114°09'2 1.7
2014-Dec-16 12:34N 22°17' E 114°10'4 4.2
2014-Dec-16 11:33N 22°16' E 114°05'3 3.4
2014-Dec-16 10:33N 22°18' E 114°08'6 5.8
2014-Dec-16 09:34N 22°16' E 114°02'6 5.7
2014-Dec-16 08:33N 22°18' E 114°08'5 4.7
2014-Dec-16 07:31N 22°16' E 114°03'6 6.7
2014-Dec-16 06:33N 22°17' E 114°10'1 0.4
2014-Dec-16 04:33N 22°17' E 114°09'1 1.4
2014-Dec-16 03:33N 22°18' E 114°08'2 2.2
2014-Dec-16 02:31N 22°20' E 114°09'0 0.0
2014-Dec-16 01:10N 22°20' E 114°09'2 2.7
2014-Dec-16 00:31N 22°18' E 114°09'2 1.3
2014-Dec-15 23:10N 22°18' E 114°07'2 0.3
2014-Dec-15 15:33N 22°17' E 114°10'3 2.3
2014-Dec-15 14:13N 22°17' E 114°06'3 4.6
2014-Dec-15 13:34N 22°17' E 114°10'0 0.0
2014-Dec-15 12:33N 22°17' E 114°10'2 1.6
2014-Dec-15 11:25N 22°18' E 114°08'1 0.4
2014-Dec-15 10:11N 22°18' E 114°07'3 5.0
2014-Dec-15 09:34N 22°17' E 114°10'2 1.9
2014-Dec-15 08:34N 22°19' E 114°12'0 0.0
2014-Dec-15 07:33N 22°19' E 114°12'0 0.0
2014-Dec-15 06:34N 22°19' E 114°12'1 0.7
2014-Dec-15 05:33N 22°18' E 114°12'2 1.0
2014-Dec-15 03:18N 22°17' E 114°10'0 0.2
2014-Dec-15 01:33N 22°17' E 114°10'2 1.9
2014-Dec-15 00:33N 22°19' E 114°09'4 3.3
2014-Dec-14 23:15N 22°17' E 114°05'4 0.5
2014-Dec-14 15:17N 22°17' E 114°10'0 0.0
2014-Dec-14 13:08N 22°17' E 114°10'0 0.0
2014-Dec-14 11:08N 22°17' E 114°10'0 0.0
2014-Dec-14 09:10N 22°17' E 114°10'0 0.0
2014-Dec-14 07:09N 22°17' E 114°10'0 0.0
2014-Dec-14 05:10N 22°17' E 114°10'1 1.4
2014-Dec-14 04:09N 22°18' E 114°08'0 0.0
2014-Dec-14 02:28N 22°18' E 114°08'4 3.9
2014-Dec-14 01:33N 22°19' E 114°12'0 0.0
2014-Dec-14 00:33N 22°19' E 114°12'0 0.0
2014-Dec-13 23:34N 22°19' E 114°12'3 0.3
2014-Dec-13 15:33N 22°17' E 114°10'1 1.1
2014-Dec-13 14:09N 22°18' E 114°08'1 2.0
2014-Dec-13 13:24N 22°17' E 114°10'0 0.0
2014-Dec-13 11:09N 22°17' E 114°10'1 1.4
2014-Dec-13 10:08N 22°18' E 114°08'2 3.4
2014-Dec-13 09:33N 22°17' E 114°10'1 0.2
2014-Dec-13 07:19N 22°17' E 114°10'0 0.0
2014-Dec-13 05:29N 22°17' E 114°10'3 2.9
2014-Dec-13 04:33N 22°19' E 114°12'2 1.5
2014-Dec-13 03:33N 22°18' E 114°11'2 1.1
2014-Dec-13 01:28N 22°18' E 114°09'1 0.8
2014-Dec-13 00:32N 22°19' E 114°09'2 1.1
2014-Dec-12 23:08N 22°18' E 114°08'2 0.2
2014-Dec-12 15:33N 22°17' E 114°10'2 1.1
2014-Dec-12 14:10N 22°18' E 114°08'1 0.9
2014-Dec-12 12:33N 22°17' E 114°10'1 1.3
2014-Dec-12 11:23N 22°18' E 114°08'0 0.1
2014-Dec-12 10:10N 22°18' E 114°08'3 5.5
2014-Dec-12 09:33N 22°18' E 114°12'0 0.5
2014-Dec-12 08:33N 22°19' E 114°12'0 0.0
2014-Dec-12 07:33N 22°19' E 114°12'0 0.0
2014-Dec-12 06:33N 22°19' E 114°12'1 0.9
2014-Dec-12 05:33N 22°18' E 114°12'2 0.9
2014-Dec-12 03:18N 22°17' E 114°10'1 0.3
2014-Dec-12 00:30N 22°17' E 114°10'2 0.2
2014-Dec-11 15:20N 22°18' E 114°08'0 0.2
2014-Dec-11 14:10N 22°18' E 114°08'1 0.8
2014-Dec-11 12:31N 22°17' E 114°09'1 1.1
2014-Dec-11 11:23N 22°18' E 114°08'0 0.1
2014-Dec-11 10:10N 22°18' E 114°08'3 5.1
2014-Dec-11 09:33N 22°18' E 114°11'1 1.0
2014-Dec-11 08:33N 22°19' E 114°12'0 0.0
2014-Dec-11 07:33N 22°19' E 114°12'0 0.0
2014-Dec-11 06:33N 22°19' E 114°12'1 0.7
2014-Dec-11 05:33N 22°18' E 114°12'2 1.0
2014-Dec-11 03:18N 22°17' E 114°09'1 0.4
2014-Dec-11 01:33N 22°18' E 114°09'1 1.1
2014-Dec-11 00:33N 22°19' E 114°09'2 1.1
2014-Dec-10 23:07N 22°18' E 114°08'1 0.2
2014-Dec-10 15:27N 22°17' E 114°10'1 0.7
2014-Dec-10 13:33N 22°18' E 114°11'1 1.2
2014-Dec-10 12:32N 22°17' E 114°10'1 1.1
2014-Dec-10 11:23N 22°18' E 114°08'0 0.2
2014-Dec-10 10:10N 22°18' E 114°08'3 5.7
2014-Dec-10 09:33N 22°18' E 114°12'1 0.6
2014-Dec-10 08:33N 22°19' E 114°12'0 0.0
2014-Dec-10 07:33N 22°19' E 114°12'0 0.0
2014-Dec-10 06:33N 22°19' E 114°12'1 0.9
2014-Dec-10 05:33N 22°18' E 114°12'2 0.9
2014-Dec-10 03:17N 22°17' E 114°10'1 0.5
2014-Dec-10 01:19N 22°17' E 114°10'0 0.0
2014-Dec-10 00:33N 22°17' E 114°10'2 1.7
2014-Dec-09 23:08N 22°18' E 114°08'2 0.2
2014-Dec-09 15:08N 22°17' E 114°10'2 1.6
2014-Dec-09 14:09N 22°18' E 114°08'2 2.3
2014-Dec-09 13:23N 22°17' E 114°10'0 0.2
2014-Dec-09 12:33N 22°17' E 114°10'1 1.2
2014-Dec-09 11:23N 22°18' E 114°08'0 0.0
2014-Dec-09 10:10N 22°18' E 114°08'3 4.4
2014-Dec-09 09:33N 22°18' E 114°11'1 1.3
2014-Dec-09 08:33N 22°19' E 114°12'0 0.0
2014-Dec-09 07:33N 22°19' E 114°12'0 0.0
2014-Dec-09 06:33N 22°19' E 114°12'1 1.2
2014-Dec-09 05:33N 22°18' E 114°11'2 0.7
2014-Dec-09 03:19N 22°17' E 114°10'  
Track history (hours):
 
Tides and Currents Weather Stations Pressure Air Temp Water Temp Dewpoint Dewpoint Depression Visibility Wind Speed Wind Dir Waves Ship Positions

First Ferry Vi

Last reported at 2014-Dec-19 02:24 UTC. Time now 2014-Dec-19 03:15 UTC.
Position N 22°20' E 114°09'.

Length 36 m; draft 1.8 m.

Type: Ship. MMSI: 477995028.

Date/timePositionNaut miles runAvg speedWind from/ knotsBaromVisibWave heightAir tempDewpointWater temp
2014-Dec-19 02:24N 22°20' E 114°09'1 0.4
2014-Dec-19 00:33N 22°19' E 114°09'3 2.2
2014-Dec-18 23:12N 22°17' E 114°06'3 0.4
2014-Dec-18 15:33N 22°17' E 114°10'4 2.8
2014-Dec-18 14:15N 22°17' E 114°06'5 7.7
2014-Dec-18 13:33N 22°18' E 114°11'2 1.8
2014-Dec-18 12:33N 22°17' E 114°10'3 2.4
2014-Dec-18 11:27N 22°17' E 114°07'1 1.1
2014-Dec-18 10:16N 22°17' E 114°05'5 7.6
2014-Dec-18 09:33N 22°18' E 114°11'1 1.3
2014-Dec-18 08:33N 22°19' E 114°12'0 0.0
2014-Dec-18 07:34N 22°19' E 114°12'0 0.0
2014-Dec-18 06:34N 22°19' E 114°12'1 1.3
2014-Dec-18 05:33N 22°18' E 114°11'2 0.8
2014-Dec-18 03:33N 22°17' E 114°10'5 3.4
2014-Dec-18 02:04N 22°16' E 114°04'611.2
2014-Dec-18 01:33N 22°17' E 114°10'0 0.3
2014-Dec-18 00:34N 22°17' E 114°10'7 5.4
2014-Dec-17 23:20N 22°15' E 114°04'6 0.8
2014-Dec-17 15:33N 22°17' E 114°10'8 7.4
2014-Dec-17 14:26N 22°16' E 114°01'8 9.3
2014-Dec-17 13:33N 22°17' E 114°10'0 0.0
2014-Dec-17 12:33N 22°17' E 114°10'4 4.3
2014-Dec-17 11:33N 22°16' E 114°05'2 2.1
2014-Dec-17 10:23N 22°16' E 114°02'8 9.4
2014-Dec-17 09:34N 22°18' E 114°11'2 1.6
2014-Dec-17 08:33N 22°19' E 114°12'0 0.0
2014-Dec-17 07:33N 22°19' E 114°12'0 0.0
2014-Dec-17 06:33N 22°19' E 114°12'2 1.6
2014-Dec-17 05:33N 22°18' E 114°11'7 4.9
2014-Dec-17 04:07N 22°15' E 114°04'610.6
2014-Dec-17 03:33N 22°17' E 114°10'5 3.7
2014-Dec-17 02:05N 22°15' E 114°04'5 9.1
2014-Dec-17 01:33N 22°18' E 114°09'1 0.7
2014-Dec-17 00:33N 22°19' E 114°09'6 5.4
2014-Dec-16 23:21N 22°15' E 114°03'2 2.3
2014-Dec-16 22:33N 22°17' E 114°04'3 0.4
2014-Dec-16 16:05N 22°15' E 114°01'815.4
2014-Dec-16 15:33N 22°17' E 114°10'8 7.2
2014-Dec-16 14:26N 22°16' E 114°01'8 9.4
2014-Dec-16 13:33N 22°19' E 114°09'2 1.7
2014-Dec-16 12:34N 22°17' E 114°10'4 4.2
2014-Dec-16 11:33N 22°16' E 114°05'3 3.4
2014-Dec-16 10:33N 22°18' E 114°08'6 5.8
2014-Dec-16 09:34N 22°16' E 114°02'6 5.7
2014-Dec-16 08:33N 22°18' E 114°08'5 4.7
2014-Dec-16 07:31N 22°16' E 114°03'6 6.7
2014-Dec-16 06:33N 22°17' E 114°10'1 0.4
2014-Dec-16 04:33N 22°17' E 114°09'1 1.4
2014-Dec-16 03:33N 22°18' E 114°08'2 2.2
2014-Dec-16 02:31N 22°20' E 114°09'0 0.0
2014-Dec-16 01:10N 22°20' E 114°09'2 2.7
2014-Dec-16 00:31N 22°18' E 114°09'2 1.3
2014-Dec-15 23:10N 22°18' E 114°07'2 0.3
2014-Dec-15 15:33N 22°17' E 114°10'3 2.3
2014-Dec-15 14:13N 22°17' E 114°06'3 4.6
2014-Dec-15 13:34N 22°17' E 114°10'0 0.0
2014-Dec-15 12:33N 22°17' E 114°10'2 1.6
2014-Dec-15 11:25N 22°18' E 114°08'1 0.4
2014-Dec-15 10:11N 22°18' E 114°07'3 5.0
2014-Dec-15 09:34N 22°17' E 114°10'2 1.9
2014-Dec-15 08:34N 22°19' E 114°12'0 0.0
2014-Dec-15 07:33N 22°19' E 114°12'0 0.0
2014-Dec-15 06:34N 22°19' E 114°12'1 0.7
2014-Dec-15 05:33N 22°18' E 114°12'2 1.0
2014-Dec-15 03:18N 22°17' E 114°10'0 0.2
2014-Dec-15 01:33N 22°17' E 114°10'2 1.9
2014-Dec-15 00:33N 22°19' E 114°09'4 3.3
2014-Dec-14 23:15N 22°17' E 114°05'4 0.5
2014-Dec-14 15:17N 22°17' E 114°10'0 0.0
2014-Dec-14 13:08N 22°17' E 114°10'0 0.0
2014-Dec-14 11:08N 22°17' E 114°10'0 0.0
2014-Dec-14 09:10N 22°17' E 114°10'0 0.0
2014-Dec-14 07:09N 22°17' E 114°10'0 0.0
2014-Dec-14 05:10N 22°17' E 114°10'1 1.4
2014-Dec-14 04:09N 22°18' E 114°08'0 0.0
2014-Dec-14 02:28N 22°18' E 114°08'4 3.9
2014-Dec-14 01:33N 22°19' E 114°12'0 0.0
2014-Dec-14 00:33N 22°19' E 114°12'0 0.0
2014-Dec-13 23:34N 22°19' E 114°12'3 0.3
2014-Dec-13 15:33N 22°17' E 114°10'1 1.1
2014-Dec-13 14:09N 22°18' E 114°08'1 2.0
2014-Dec-13 13:24N 22°17' E 114°10'0 0.0
2014-Dec-13 11:09N 22°17' E 114°10'1 1.4
2014-Dec-13 10:08N 22°18' E 114°08'2 3.4
2014-Dec-13 09:33N 22°17' E 114°10'1 0.2
2014-Dec-13 07:19N 22°17' E 114°10'0 0.0
2014-Dec-13 05:29N 22°17' E 114°10'3 2.9
2014-Dec-13 04:33N 22°19' E 114°12'2 1.5
2014-Dec-13 03:33N 22°18' E 114°11'2 1.1
2014-Dec-13 01:28N 22°18' E 114°09'1 0.8
2014-Dec-13 00:32N 22°19' E 114°09'2 1.1
2014-Dec-12 23:08N 22°18' E 114°08'2 0.2
2014-Dec-12 15:33N 22°17' E 114°10'2 1.1
2014-Dec-12 14:10N 22°18' E 114°08'1 0.9
2014-Dec-12 12:33N 22°17' E 114°10'1 1.3
2014-Dec-12 11:23N 22°18' E 114°08'0 0.1
2014-Dec-12 10:10N 22°18' E 114°08'3 5.5
2014-Dec-12 09:33N 22°18' E 114°12'0 0.5
2014-Dec-12 08:33N 22°19' E 114°12'0 0.0
2014-Dec-12 07:33N 22°19' E 114°12'0 0.0
2014-Dec-12 06:33N 22°19' E 114°12'1 0.9
2014-Dec-12 05:33N 22°18' E 114°12'2 0.9
2014-Dec-12 03:18N 22°17' E 114°10'1 0.3
2014-Dec-12 00:30N 22°17' E 114°10'2 0.2
2014-Dec-11 15:20N 22°18' E 114°08'0 0.2
2014-Dec-11 14:10N 22°18' E 114°08'1 0.8
2014-Dec-11 12:31N 22°17' E 114°09'1 1.1
2014-Dec-11 11:23N 22°18' E 114°08'0 0.1
2014-Dec-11 10:10N 22°18' E 114°08'3 5.1
2014-Dec-11 09:33N 22°18' E 114°11'1 1.0
2014-Dec-11 08:33N 22°19' E 114°12'0 0.0
2014-Dec-11 07:33N 22°19' E 114°12'0 0.0
2014-Dec-11 06:33N 22°19' E 114°12'1 0.7
2014-Dec-11 05:33N 22°18' E 114°12'2 1.0
2014-Dec-11 03:18N 22°17' E 114°09'1 0.4
2014-Dec-11 01:33N 22°18' E 114°09'1 1.1
2014-Dec-11 00:33N 22°19' E 114°09'2 1.1
2014-Dec-10 23:07N 22°18' E 114°08'1 0.2
2014-Dec-10 15:27N 22°17' E 114°10'1 0.7
2014-Dec-10 13:33N 22°18' E 114°11'1 1.2
2014-Dec-10 12:32N 22°17' E 114°10'1 1.1
2014-Dec-10 11:23N 22°18' E 114°08'0 0.2
2014-Dec-10 10:10N 22°18' E 114°08'3 5.7
2014-Dec-10 09:33N 22°18' E 114°12'1 0.6
2014-Dec-10 08:33N 22°19' E 114°12'0 0.0
2014-Dec-10 07:33N 22°19' E 114°12'0 0.0
2014-Dec-10 06:33N 22°19' E 114°12'1 0.9
2014-Dec-10 05:33N 22°18' E 114°12'2 0.9
2014-Dec-10 03:17N 22°17' E 114°10'1 0.5
2014-Dec-10 01:19N 22°17' E 114°10'0 0.0
2014-Dec-10 00:33N 22°17' E 114°10'2 1.7
2014-Dec-09 23:08N 22°18' E 114°08'2 0.2
2014-Dec-09 15:08N 22°17' E 114°10'2 1.6
2014-Dec-09 14:09N 22°18' E 114°08'2 2.3
2014-Dec-09 13:23N 22°17' E 114°10'0 0.2
2014-Dec-09 12:33N 22°17' E 114°10'1 1.2
2014-Dec-09 11:23N 22°18' E 114°08'0 0.0
2014-Dec-09 10:10N 22°18' E 114°08'3 4.4
2014-Dec-09 09:33N 22°18' E 114°11'1 1.3
2014-Dec-09 08:33N 22°19' E 114°12'0 0.0
2014-Dec-09 07:33N 22°19' E 114°12'0 0.0
2014-Dec-09 06:33N 22°19' E 114°12'1 1.2
2014-Dec-09 05:33N 22°18' E 114°11'2 0.7
2014-Dec-09 03:19N 22°17' E 114°10'  

Dump ship's entire track history